Time;durP1;ratioP1;P1;durP2;ratioP2;P2;SDS_P1;SDS_P2;PMS_P1;PMS_P2;Temp;Humidity;BMP_temperature;BMP_pressure;BME280_temperature;BME280_humidity;BME280_pressure;Samples;Min_cycle;Max_cycle;Signal;HPM_P1;HPM_P2
2023/09/20 00:01:26;;;;;;;3.20;1.48;;;17.30;91.50;;;;;;5049163;28;20746;-74
2023/09/20 00:03:54;;;;;;;3.20;1.65;;;17.30;91.30;;;;;;5048244;28;20440;-73
2023/09/20 00:06:21;;;;;;;2.38;1.38;;;17.30;91.60;;;;;;5057633;28;20840;-73
2023/09/20 00:08:48;;;;;;;2.67;1.77;;;17.30;91.80;;;;;;5054842;28;20436;-74
2023/09/20 00:11:18;;;;;;;5.10;1.70;;;17.20;92.30;;;;;;5043484;28;20554;-74
2023/09/20 00:13:45;;;;;;;4.25;1.70;;;17.20;92.10;;;;;;5044686;28;20466;-72
2023/09/20 00:16:12;;;;;;;5.80;1.90;;;17.30;92.20;;;;;;5052274;28;20827;-72
2023/09/20 00:18:39;;;;;;;3.90;1.90;;;17.20;92.10;;;;;;5054287;28;20888;-74
2023/09/20 00:21:07;;;;;;;3.40;2.00;;;17.20;92.40;;;;;;5054042;28;20888;-74
2023/09/20 00:23:35;;;;;;;2.70;1.60;;;17.20;92.50;;;;;;5042187;28;20432;-75
2023/09/20 00:26:02;;;;;;;5.13;2.13;;;17.20;92.50;;;;;;5047606;28;20743;-71
2023/09/20 00:28:29;;;;;;;2.27;1.53;;;17.20;93.20;;;;;;5053435;28;20932;-72
2023/09/20 00:30:56;;;;;;;2.72;1.60;;;17.10;92.70;;;;;;5041175;28;20889;-72
2023/09/20 00:33:23;;;;;;;4.72;1.90;;;17.10;93.10;;;;;;5051942;28;20425;-73
2023/09/20 00:35:50;;;;;;;3.83;1.92;;;17.10;93.00;;;;;;5055962;28;20427;-71
2023/09/20 00:38:18;;;;;;;4.28;1.92;;;17.10;92.90;;;;;;5062299;28;20437;-72
2023/09/20 00:40:47;;;;;;;3.53;1.85;;;17.10;92.80;;;;;;5049869;28;20508;-72
2023/09/20 00:43:15;;;;;;;4.28;2.20;;;17.10;93.20;;;;;;5058795;28;20419;-72
2023/09/20 00:45:42;;;;;;;3.70;2.05;;;17.10;93.10;;;;;;5053994;28;20433;-72
2023/09/20 00:48:12;;;;;;;3.90;1.95;;;17.10;93.10;;;;;;5047033;28;20433;-72
2023/09/20 00:50:41;;;;;;;3.40;1.80;;;17.10;93.30;;;;;;5044653;28;20796;-72
2023/09/20 00:53:11;;;;;;;4.13;1.95;;;17.10;93.50;;;;;;5046844;28;20540;-73
2023/09/20 00:55:40;;;;;;;4.30;1.90;;;17.10;93.50;;;;;;5053027;28;20508;-72
2023/09/20 00:58:09;;;;;;;2.80;1.80;;;17.00;93.50;;;;;;5054504;28;20440;-73
2023/09/20 01:00:40;;;;;;;5.05;2.10;;;17.00;93.80;;;;;;5047356;28;20512;-72
2023/09/20 01:03:07;;;;;;;3.53;2.17;;;17.10;93.90;;;;;;5045354;28;20536;-73
2023/09/20 01:05:36;;;;;;;3.67;2.03;;;17.10;94.00;;;;;;5052348;28;20433;-72
2023/09/20 01:08:04;;;;;;;4.05;1.90;;;17.10;94.00;;;;;;5051538;28;20427;-73
2023/09/20 01:10:32;;;;;;;2.75;1.70;;;17.10;93.90;;;;;;5057018;28;21017;-72
2023/09/20 01:13:03;;;;;;;3.25;1.90;;;17.10;93.90;;;;;;5051600;28;20457;-72
2023/09/20 01:15:29;;;;;;;3.50;1.33;;;17.10;94.40;;;;;;5050835;28;20528;-72
2023/09/20 01:17:57;;;;;;;4.85;2.45;;;17.10;94.60;;;;;;5047840;28;20665;-73
2023/09/20 01:20:24;;;;;;;3.30;1.80;;;17.00;95.00;;;;;;5053298;28;20857;-72
2023/09/20 01:22:54;;;;;;;3.53;2.00;;;17.00;95.40;;;;;;5049125;28;20963;-72
2023/09/20 01:25:24;;;;;;;4.38;1.60;;;16.90;95.70;;;;;;5059175;28;20657;-72
2023/09/20 01:27:52;;;;;;;2.53;1.60;;;17.00;95.90;;;;;;5049685;28;20519;-72
2023/09/20 01:30:18;;;;;;;4.07;1.60;;;16.90;96.10;;;;;;5046817;28;20431;-72
2023/09/20 01:32:45;;;;;;;3.42;1.60;;;16.80;96.10;;;;;;5049764;28;20537;-72
2023/09/20 01:35:16;;;;;;;2.90;1.70;;;16.80;96.10;;;;;;5052873;28;20862;-72
2023/09/20 01:37:44;;;;;;;4.50;2.10;;;16.80;96.30;;;;;;5050040;28;20422;-72
2023/09/20 01:40:15;;;;;;;3.30;2.10;;;16.80;96.40;;;;;;5052149;28;20432;-74
2023/09/20 01:42:43;;;;;;;3.25;2.00;;;16.70;96.60;;;;;;5056465;28;20528;-72
2023/09/20 01:45:14;;;;;;;3.15;1.90;;;16.80;96.80;;;;;;5053863;28;20447;-74
2023/09/20 01:47:42;;;;;;;4.45;2.10;;;16.70;97.10;;;;;;5052393;28;20923;-72
2023/09/20 01:50:10;;;;;;;4.47;2.00;;;16.70;97.30;;;;;;5043358;28;20828;-73
2023/09/20 01:52:37;;;;;;;5.45;2.20;;;16.70;97.70;;;;;;5051946;28;20440;-74
2023/09/20 01:55:07;;;;;;;5.70;2.15;;;16.70;97.60;;;;;;5048035;28;20432;-72
2023/09/20 01:57:36;;;;;;;3.55;2.05;;;16.70;97.90;;;;;;5052795;28;20862;-72
2023/09/20 02:00:09;;;;;;;3.85;1.80;;;16.60;97.90;;;;;;5044542;28;20901;-72
2023/09/20 02:02:36;;;;;;;5.53;2.10;;;16.60;98.10;;;;;;5049805;28;20936;-72
2023/09/20 02:05:04;;;;;;;4.35;1.88;;;16.60;98.20;;;;;;5051115;28;20491;-72
2023/09/20 02:07:32;;;;;;;4.78;2.10;;;16.60;98.20;;;;;;5054755;28;21002;-73
2023/09/20 02:09:59;;;;;;;3.30;1.90;;;16.60;98.30;;;;;;5054720;28;20836;-72
2023/09/20 02:12:26;;;;;;;3.53;1.85;;;16.50;98.50;;;;;;5049675;28;20510;-73
2023/09/20 02:14:54;;;;;;;4.45;2.30;;;16.50;98.30;;;;;;5054496;28;20416;-72
2023/09/20 02:17:21;;;;;;;3.47;1.60;;;16.40;98.30;;;;;;5046958;28;20889;-72
2023/09/20 02:19:48;;;;;;;4.13;2.30;;;16.50;98.50;;;;;;5045194;28;20424;-73
2023/09/20 02:22:14;;;;;;;4.43;2.50;;;16.40;98.80;;;;;;5046837;28;20424;-71
2023/09/20 02:24:41;;;;;;;3.40;1.70;;;16.40;98.90;;;;;;5054617;28;20413;-73
2023/09/20 02:27:08;;;;;;;3.22;1.90;;;16.40;99.00;;;;;;5051104;28;20617;-72
2023/09/20 02:29:35;;;;;;;6.40;2.30;;;16.40;99.10;;;;;;5049500;28;20430;-72
2023/09/20 02:32:03;;;;;;;3.77;1.90;;;16.30;99.00;;;;;;5046693;28;20501;-73
2023/09/20 02:34:30;;;;;;;3.25;2.00;;;16.30;99.00;;;;;;5031069;28;20855;-72
2023/09/20 02:36:57;;;;;;;4.68;2.20;;;16.30;99.00;;;;;;5040406;28;20425;-72
2023/09/20 02:39:24;;;;;;;3.90;2.00;;;16.30;99.00;;;;;;5041368;28;20461;-72
2023/09/20 02:41:51;;;;;;;4.38;2.20;;;16.30;99.10;;;;;;5058854;28;20420;-73
2023/09/20 02:44:18;;;;;;;3.85;1.90;;;16.30;99.40;;;;;;5051996;28;20461;-74
2023/09/20 02:46:48;;;;;;;4.10;1.90;;;16.30;99.30;;;;;;5050491;28;20944;-74
2023/09/20 02:49:16;;;;;;;3.33;1.88;;;16.20;99.20;;;;;;5048335;28;20936;-72
2023/09/20 02:51:42;;;;;;;4.70;2.40;;;16.20;99.20;;;;;;5047496;28;20429;-72
2023/09/20 02:54:09;;;;;;;3.60;2.22;;;16.20;99.40;;;;;;5052680;28;20421;-72
2023/09/20 02:56:36;;;;;;;3.80;2.13;;;16.20;99.40;;;;;;5042448;28;20846;-74
2023/09/20 02:59:06;;;;;;;5.35;2.10;;;16.20;99.40;;;;;;5044710;28;20413;-72
2023/09/20 03:01:34;;;;;;;4.38;2.20;;;16.20;99.60;;;;;;5049233;28;20495;-73
2023/09/20 03:04:01;;;;;;;3.83;2.30;;;16.20;99.50;;;;;;5046373;28;20453;-73
2023/09/20 03:06:30;;;;;;;5.05;2.30;;;16.20;99.70;;;;;;5054276;28;20876;-73
2023/09/20 03:08:58;;;;;;;3.25;2.15;;;16.20;99.60;;;;;;5046454;28;20435;-72
2023/09/20 03:11:25;;;;;;;2.78;1.90;;;16.20;99.70;;;;;;5050296;28;20423;-73
2023/09/20 03:13:52;;;;;;;3.40;2.00;;;16.20;99.80;;;;;;5050654;28;20871;-74
2023/09/20 03:16:19;;;;;;;3.67;2.03;;;16.20;99.80;;;;;;5043752;28;20514;-74
2023/09/20 03:18:46;;;;;;;3.80;1.90;;;16.20;99.70;;;;;;5039602;28;20526;-72
2023/09/20 03:21:13;;;;;;;3.90;2.20;;;16.20;99.70;;;;;;5055255;28;20497;-72
2023/09/20 03:23:41;;;;;;;3.00;2.03;;;16.20;99.70;;;;;;5045719;28;20423;-72
2023/09/20 03:26:09;;;;;;;2.80;2.20;;;16.10;99.90;;;;;;5046834;28;20500;-72
2023/09/20 03:28:36;;;;;;;2.90;1.70;;;16.20;99.90;;;;;;5054131;28;20977;-73
2023/09/20 03:31:06;;;;;;;3.63;2.00;;;16.10;99.90;;;;;;5044195;28;20503;-73
2023/09/20 03:33:33;;;;;;;3.33;2.00;;;16.10;99.90;;;;;;5043945;28;20484;-72
2023/09/20 03:36:01;;;;;;;4.77;2.17;;;16.10;99.90;;;;;;5041882;28;20445;-73
2023/09/20 03:38:29;;;;;;;4.00;1.80;;;16.10;99.90;;;;;;5042986;28;21014;-72
2023/09/20 03:40:57;;;;;;;3.97;1.80;;;16.10;99.90;;;;;;5042176;28;20447;-71
2023/09/20 03:43:27;;;;;;;4.03;1.93;;;16.10;99.90;;;;;;5047317;28;20435;-72
2023/09/20 03:45:54;;;;;;;5.50;2.30;;;16.10;99.90;;;;;;5044343;28;20870;-72
2023/09/20 03:48:21;;;;;;;2.72;2.00;;;16.10;99.90;;;;;;5035867;28;20532;-72
2023/09/20 03:50:49;;;;;;;3.10;1.90;;;16.10;99.90;;;;;;5047518;28;20445;-72
2023/09/20 03:53:16;;;;;;;3.40;2.40;;;16.10;99.90;;;;;;5040520;28;20938;-72
2023/09/20 03:55:44;;;;;;;3.93;2.00;;;16.10;99.90;;;;;;5045139;28;20558;-72
2023/09/20 03:58:12;;;;;;;5.00;1.90;;;16.10;99.90;;;;;;5052327;28;20411;-74
2023/09/20 04:00:39;;;;;;;4.28;2.28;;;16.10;99.90;;;;;;5049644;28;20905;-74
2023/09/20 04:03:08;;;;;;;4.90;2.30;;;16.10;99.90;;;;;;5047343;28;20792;-73
2023/09/20 04:05:35;;;;;;;2.70;2.00;;;16.10;99.90;;;;;;5044713;28;20506;-74
2023/09/20 04:08:02;;;;;;;2.30;1.90;;;16.10;99.90;;;;;;5052019;28;20527;-72
2023/09/20 04:10:29;;;;;;;3.85;2.22;;;16.10;99.90;;;;;;5051740;28;20419;-72
2023/09/20 04:12:56;;;;;;;3.15;2.20;;;16.10;99.90;;;;;;5043791;28;20432;-72
2023/09/20 04:15:24;;;;;;;3.38;1.90;;;16.10;99.90;;;;;;5046509;28;20428;-72
2023/09/20 04:17:51;;;;;;;4.07;2.30;;;16.10;99.90;;;;;;5044058;28;20416;-72
2023/09/20 04:20:20;;;;;;;3.20;2.13;;;16.10;99.90;;;;;;5041004;28;20510;-72
2023/09/20 04:22:49;;;;;;;3.35;2.03;;;16.10;99.90;;;;;;5041249;28;20957;-72
2023/09/20 04:25:16;;;;;;;3.38;2.10;;;16.10;99.90;;;;;;5051082;28;20431;-73
2023/09/20 04:27:43;;;;;;;4.90;2.30;;;16.10;99.90;;;;;;5053127;28;20515;-72
2023/09/20 04:30:13;;;;;;;4.70;2.60;;;16.10;99.90;;;;;;5041372;28;20413;-72
2023/09/20 04:32:41;;;;;;;3.22;2.20;;;16.00;99.90;;;;;;5050947;28;20443;-73
2023/09/20 04:35:08;;;;;;;2.95;2.30;;;16.00;99.90;;;;;;5036174;28;20524;-73
2023/09/20 04:37:35;;;;;;;3.35;2.30;;;16.00;99.90;;;;;;5047298;28;20435;-72
2023/09/20 04:40:03;;;;;;;3.08;2.40;;;16.00;99.90;;;;;;5041624;28;20519;-72
2023/09/20 04:42:32;;;;;;;3.15;2.10;;;16.00;99.90;;;;;;5043420;28;20437;-72
2023/09/20 04:44:59;;;;;;;4.45;2.30;;;16.00;99.90;;;;;;5055564;28;20421;-72
2023/09/20 04:47:28;;;;;;;3.90;2.10;;;16.00;99.90;;;;;;5045841;28;20855;-74
2023/09/20 04:49:56;;;;;;;3.22;2.10;;;16.00;99.90;;;;;;5045301;28;20439;-73
2023/09/20 04:52:23;;;;;;;3.65;2.30;;;16.00;99.90;;;;;;5052400;28;20506;-73
2023/09/20 04:54:52;;;;;;;3.47;2.20;;;16.00;99.90;;;;;;5045280;28;20433;-73
2023/09/20 04:57:19;;;;;;;3.70;2.70;;;16.00;99.90;;;;;;5046588;28;20417;-74
2023/09/20 04:59:46;;;;;;;6.03;3.40;;;16.00;99.90;;;;;;5044544;28;20502;-73
2023/09/20 05:02:13;;;;;;;4.63;2.90;;;16.00;99.90;;;;;;5043919;28;20448;-70
2023/09/20 05:04:40;;;;;;;3.50;2.47;;;16.00;99.90;;;;;;5041432;28;20914;-70
2023/09/20 05:07:08;;;;;;;3.42;2.10;;;15.90;99.90;;;;;;5042140;28;20454;-70
2023/09/20 05:09:35;;;;;;;3.70;2.20;;;15.90;99.90;;;;;;5035330;28;20453;-70
2023/09/20 05:12:03;;;;;;;4.15;1.90;;;15.80;99.90;;;;;;5041489;28;20459;-70
2023/09/20 05:14:30;;;;;;;4.10;2.20;;;15.90;99.90;;;;;;5050477;28;20427;-70
2023/09/20 05:16:57;;;;;;;4.18;2.60;;;15.90;99.90;;;;;;5043482;28;20452;-70
2023/09/20 05:19:23;;;;;;;3.97;2.30;;;15.80;99.90;;;;;;5038620;28;20492;-70
2023/09/20 05:21:49;;;;;;;4.95;2.45;;;15.80;99.90;;;;;;5040666;28;20471;-70
2023/09/20 05:24:18;;;;;;;5.20;2.40;;;15.80;99.90;;;;;;5050921;28;20493;-70
2023/09/20 05:26:44;;;;;;;3.70;2.53;;;15.80;99.90;;;;;;5044240;28;20445;-69
2023/09/20 05:29:11;;;;;;;4.18;2.50;;;15.80;99.90;;;;;;5060639;28;20433;-74
2023/09/20 05:31:38;;;;;;;4.30;2.60;;;15.90;99.90;;;;;;5045619;28;20545;-75
2023/09/20 05:34:05;;;;;;;3.58;2.30;;;15.90;99.90;;;;;;5053265;28;20520;-75
2023/09/20 05:36:32;;;;;;;4.18;2.30;;;15.90;99.90;;;;;;5053030;28;20440;-75
2023/09/20 05:38:59;;;;;;;3.70;2.70;;;15.80;99.90;;;;;;5053664;28;20793;-75
2023/09/20 05:41:28;;;;;;;4.30;2.28;;;15.90;99.90;;;;;;5049532;28;20737;-75
2023/09/20 05:43:54;;;;;;;4.72;2.45;;;15.90;99.90;;;;;;5055737;28;20445;-75
2023/09/20 05:46:24;;;;;;;6.20;2.23;;;16.00;99.90;;;;;;5041138;28;20802;-74
2023/09/20 05:48:52;;;;;;;3.90;2.22;;;15.90;99.90;;;;;;5043973;28;20870;-75
2023/09/20 05:51:18;;;;;;;3.78;2.20;;;15.90;99.90;;;;;;5047674;28;20431;-75
2023/09/20 05:53:45;;;;;;;3.65;2.08;;;15.90;99.90;;;;;;5048674;28;20875;-75
2023/09/20 05:56:12;;;;;;;3.67;2.03;;;16.00;99.90;;;;;;5047033;28;20440;-74
2023/09/20 05:58:41;;;;;;;4.10;2.40;;;16.00;99.90;;;;;;5055811;28;20456;-75
2023/09/20 06:01:09;;;;;;;3.30;2.08;;;16.00;99.90;;;;;;5051780;28;20536;-75
2023/09/20 06:03:36;;;;;;;2.30;2.10;;;16.00;99.90;;;;;;5045435;28;20811;-75
2023/09/20 06:06:06;;;;;;;2.75;2.03;;;16.00;99.90;;;;;;5046464;28;20441;-75
2023/09/20 06:08:33;;;;;;;3.90;2.30;;;16.00;99.90;;;;;;5055149;28;20424;-75
2023/09/20 06:11:04;;;;;;;4.55;2.42;;;16.10;99.90;;;;;;5060502;28;20435;-74
2023/09/20 06:13:30;;;;;;;4.47;2.35;;;16.10;99.90;;;;;;5043807;28;20465;-74
2023/09/20 06:15:58;;;;;;;3.55;2.10;;;16.10;99.90;;;;;;5044844;28;20915;-75
2023/09/20 06:18:25;;;;;;;4.40;2.20;;;16.10;99.90;;;;;;5058519;28;20412;-74
2023/09/20 06:20:55;;;;;;;2.60;2.10;;;16.20;99.90;;;;;;5052591;28;20451;-75
2023/09/20 06:23:24;;;;;;;2.83;1.90;;;16.10;99.90;;;;;;5050185;28;20438;-74
2023/09/20 06:25:51;;;;;;;3.88;2.03;;;16.20;99.90;;;;;;5060682;28;20715;-74
2023/09/20 06:28:17;;;;;;;3.92;2.42;;;16.20;99.90;;;;;;5042759;28;20425;-75
2023/09/20 06:30:44;;;;;;;2.45;1.73;;;16.20;99.90;;;;;;5054316;28;20449;-74
2023/09/20 06:33:13;;;;;;;2.97;1.90;;;16.20;99.90;;;;;;5044978;28;20436;-74
2023/09/20 06:35:40;;;;;;;3.38;2.20;;;16.30;99.90;;;;;;5057700;28;20423;-74
2023/09/20 06:38:09;;;;;;;4.35;2.20;;;16.30;99.90;;;;;;5046525;28;20430;-74
2023/09/20 06:40:38;;;;;;;4.70;2.20;;;16.40;99.90;;;;;;5048855;28;20893;-74
2023/09/20 06:43:06;;;;;;;3.92;2.20;;;16.40;99.90;;;;;;5055182;28;20417;-74
2023/09/20 06:45:33;;;;;;;2.97;1.80;;;16.50;99.90;;;;;;5048240;28;20817;-75
2023/09/20 06:48:00;;;;;;;3.05;1.83;;;16.50;99.90;;;;;;5046006;28;20473;-75
2023/09/20 06:50:28;;;;;;;5.50;2.30;;;16.50;99.90;;;;;;5051436;28;20423;-74
2023/09/20 06:52:55;;;;;;;3.17;1.90;;;16.60;99.90;;;;;;5051863;28;20540;-74
2023/09/20 06:55:21;;;;;;;2.87;2.10;;;16.60;99.90;;;;;;5053855;28;20475;-74
2023/09/20 06:57:51;;;;;;;4.17;2.10;;;16.60;99.90;;;;;;5059220;28;20832;-74
2023/09/20 07:00:24;;;;;;;4.78;2.17;;;16.60;99.90;;;;;;5038838;28;20444;-75
2023/09/20 07:02:51;;;;;;;3.50;2.10;;;16.70;99.90;;;;;;5047746;28;20432;-74
2023/09/20 07:05:18;;;;;;;4.40;2.58;;;16.70;99.90;;;;;;5044731;28;20438;-74
2023/09/20 07:07:47;;;;;;;4.30;2.10;;;16.80;99.90;;;;;;5043953;28;20459;-74
2023/09/20 07:10:15;;;;;;;4.13;2.60;;;16.80;99.90;;;;;;5051007;28;20437;-74
2023/09/20 07:12:42;;;;;;;3.53;2.20;;;16.90;99.90;;;;;;5050060;28;20439;-74
2023/09/20 07:15:10;;;;;;;5.10;1.90;;;16.90;99.90;;;;;;5048719;28;20505;-74
2023/09/20 07:17:40;;;;;;;3.40;2.20;;;17.00;99.90;;;;;;5058941;28;20432;-74
2023/09/20 07:20:14;;;;;;;5.50;2.10;;;17.00;99.90;;;;;;5050529;28;20429;-74
2023/09/20 07:22:42;;;;;;;3.25;1.88;;;17.10;99.90;;;;;;5056100;28;20630;-75
2023/09/20 07:25:17;;;;;;;4.00;1.88;;;17.10;99.90;;;;;;5041043;28;20471;-74
2023/09/20 07:27:44;;;;;;;3.70;2.05;;;17.20;99.90;;;;;;5042632;28;20563;-74
2023/09/20 07:30:14;;;;;;;4.70;1.97;;;17.20;99.80;;;;;;5054435;28;20429;-74
2023/09/20 07:32:41;;;;;;;2.40;1.60;;;17.30;99.90;;;;;;5047444;28;20494;-74
2023/09/20 07:35:19;;;;;;;4.15;2.15;;;17.30;99.90;;;;;;5052980;28;20581;-74
2023/09/20 07:37:47;;;;;;;3.50;1.70;;;17.30;99.90;;;;;;5047069;28;20475;-74
2023/09/20 07:40:15;;;;;;;3.30;1.60;;;17.40;99.90;;;;;;5051273;28;20454;-74
2023/09/20 07:42:42;;;;;;;3.47;2.10;;;17.40;99.90;;;;;;5053628;28;20423;-74
2023/09/20 07:45:13;;;;;;;3.30;1.73;;;17.50;99.90;;;;;;5046373;28;20451;-75
2023/09/20 07:47:43;;;;;;;3.80;2.10;;;17.60;99.60;;;;;;5045165;28;20608;-74
2023/09/20 07:50:11;;;;;;;3.38;2.20;;;17.60;99.50;;;;;;5043813;28;20445;-75
2023/09/20 07:52:38;;;;;;;2.83;1.97;;;17.70;99.00;;;;;;5052423;28;20525;-75
2023/09/20 07:55:06;;;;;;;3.80;1.90;;;17.70;98.60;;;;;;5048393;28;20441;-75
2023/09/20 07:57:34;;;;;;;2.40;1.77;;;17.80;98.20;;;;;;5056904;28;20423;-75
2023/09/20 08:00:05;;;;;;;2.70;1.95;;;17.80;98.00;;;;;;5047092;28;20433;-74
2023/09/20 08:02:32;;;;;;;5.18;2.20;;;17.90;98.00;;;;;;5045454;28;20424;-74
2023/09/20 08:04:59;;;;;;;3.40;1.50;;;17.90;97.60;;;;;;5040428;28;20441;-74
2023/09/20 08:07:26;;;;;;;3.60;1.85;;;17.90;97.70;;;;;;5049806;28;20620;-74
2023/09/20 08:09:52;;;;;;;3.67;1.88;;;18.00;97.60;;;;;;5044117;28;20436;-75
2023/09/20 08:12:19;;;;;;;4.25;1.67;;;18.00;97.30;;;;;;5048962;28;20435;-74
2023/09/20 08:14:48;;;;;;;3.92;1.90;;;18.10;97.30;;;;;;5043590;28;20433;-75
2023/09/20 08:19:58;;;;;;;3.45;2.20;;;18.20;96.70;;;;;;5039807;28;20900;-75
2023/09/20 08:22:25;;;;;;;2.33;1.70;;;18.30;96.70;;;;;;5048456;28;20502;-75
2023/09/20 09:00:36;;;;;;;3.85;1.42;;;19.30;93.50;;;;;;5068902;28;20920;-74
2023/09/20 09:03:05;;;;;;;3.47;1.50;;;19.50;93.20;;;;;;5057111;28;20709;-74
2023/09/20 09:05:33;;;;;;;3.40;1.80;;;19.50;92.80;;;;;;5054306;28;20434;-73
2023/09/20 09:08:03;;;;;;;2.20;1.50;;;19.60;92.80;;;;;;5049595;28;20945;-74
2023/09/20 09:10:30;;;;;;;3.15;1.38;;;19.70;92.90;;;;;;5047695;28;20487;-71
2023/09/20 09:12:57;;;;;;;3.20;1.70;;;19.70;92.70;;;;;;5048544;28;20433;-74
2023/09/20 09:15:26;;;;;;;2.33;1.35;;;19.80;92.60;;;;;;5045856;28;20436;-74
2023/09/20 09:17:53;;;;;;;2.60;1.65;;;19.90;92.20;;;;;;5046657;28;20436;-75
2023/09/20 09:20:22;;;;;;;2.40;1.45;;;20.10;92.00;;;;;;5054606;28;20418;-74
2023/09/20 09:22:50;;;;;;;2.85;1.60;;;20.30;91.40;;;;;;5050065;28;20456;-72
2023/09/20 09:25:18;;;;;;;4.50;1.70;;;20.50;90.50;;;;;;5047653;28;20482;-73
2023/09/20 09:27:46;;;;;;;2.00;1.20;;;20.60;90.20;;;;;;5048484;28;20721;-73
2023/09/20 09:30:15;;;;;;;2.03;1.20;;;20.80;88.50;;;;;;5053848;28;20424;-72
2023/09/20 09:32:43;;;;;;;3.90;1.40;;;21.10;87.60;;;;;;5042693;28;20437;-75
2023/09/20 09:35:12;;;;;;;3.90;1.20;;;21.20;86.10;;;;;;5050668;28;20508;-74
2023/09/20 09:37:40;;;;;;;1.90;1.10;;;21.40;84.60;;;;;;5051143;28;20906;-74
2023/09/20 09:40:09;;;;;;;2.47;1.20;;;21.60;83.60;;;;;;5051646;28;20416;-75
2023/09/20 09:42:36;;;;;;;1.50;1.10;;;21.90;81.20;;;;;;5049549;28;20437;-75
2023/09/20 09:45:03;;;;;;;2.55;1.20;;;22.00;81.20;;;;;;5050930;28;20425;-72
2023/09/20 09:47:33;;;;;;;1.67;1.00;;;22.20;80.70;;;;;;5048008;28;20799;-75
2023/09/20 09:50:02;;;;;;;1.40;1.00;;;22.30;78.30;;;;;;5051479;28;20460;-74
2023/09/20 09:52:30;;;;;;;2.22;1.20;;;22.20;77.00;;;;;;5052659;28;21064;-75
2023/09/20 09:54:58;;;;;;;2.70;1.20;;;21.90;78.00;;;;;;5056356;28;20429;-74
2023/09/20 09:57:25;;;;;;;1.63;1.10;;;21.90;77.80;;;;;;5044194;28;20431;-75
2023/09/20 09:59:53;;;;;;;1.50;1.10;;;22.10;77.80;;;;;;5048844;28;20942;-75
2023/09/20 10:02:21;;;;;;;3.03;1.17;;;22.10;77.30;;;;;;5048973;28;20544;-76
2023/09/20 10:04:53;;;;;;;4.30;1.15;;;22.20;77.10;;;;;;5047302;28;20923;-76
2023/09/20 10:07:24;;;;;;;2.22;1.00;;;22.40;77.00;;;;;;5048269;28;20443;-75
2023/09/20 10:09:54;;;;;;;1.20;0.80;;;22.40;75.70;;;;;;5048821;28;20459;-73
2023/09/20 10:12:23;;;;;;;3.22;1.00;;;22.50;73.20;;;;;;5051263;28;20429;-74
2023/09/20 10:14:51;;;;;;;3.17;1.25;;;22.50;73.90;;;;;;5056367;28;20429;-73
2023/09/20 10:17:20;;;;;;;2.42;0.90;;;22.40;73.20;;;;;;5049702;28;20425;-73
2023/09/20 10:19:49;;;;;;;3.33;0.80;;;22.50;72.80;;;;;;5049913;28;20803;-74
2023/09/20 10:22:21;;;;;;;1.70;1.00;;;22.50;71.70;;;;;;5050439;28;20413;-74
2023/09/20 10:24:53;;;;;;;1.73;1.00;;;22.50;71.60;;;;;;5048027;28;20433;-75
2023/09/20 10:27:21;;;;;;;1.48;0.80;;;22.40;70.50;;;;;;5058017;28;20918;-75
2023/09/20 10:29:59;;;;;;;1.87;0.90;;;22.50;70.80;;;;;;5052190;28;20429;-73
2023/09/20 10:32:31;;;;;;;2.60;1.00;;;22.60;69.00;;;;;;5042959;28;20433;-75
2023/09/20 10:35:21;;;;;;;2.13;0.80;;;22.40;69.60;;;;;;5061045;28;20413;-74
2023/09/20 10:38:17;;;;;;;1.90;1.00;;;22.40;70.40;;;;;;5051588;28;20442;-75
2023/09/20 10:41:05;;;;;;;1.50;0.87;;;22.60;69.30;;;;;;5048453;28;20429;-76
2023/09/20 10:43:50;;;;;;;1.60;0.77;;;22.70;67.90;;;;;;5042383;28;20536;-73
2023/09/20 10:46:22;;;;;;;2.22;0.80;;;22.80;68.20;;;;;;5052452;28;20431;-74
2023/09/20 10:48:51;;;;;;;2.80;1.30;;;23.00;67.10;;;;;;5046814;28;20445;-76
2023/09/20 10:51:43;;;;;;;1.50;1.07;;;23.20;67.10;;;;;;5046407;28;20473;-74
2023/09/20 10:54:29;;;;;;;2.28;1.10;;;23.20;67.10;;;;;;5045709;28;20429;-75
2023/09/20 10:57:10;;;;;;;2.35;1.10;;;23.10;67.70;;;;;;5046925;28;20437;-73
2023/09/20 10:59:41;;;;;;;2.28;0.80;;;23.10;68.50;;;;;;5042690;28;20409;-74
2023/09/20 11:02:10;;;;;;;1.33;0.90;;;23.10;66.80;;;;;;5042671;28;20433;-76
2023/09/20 11:04:40;;;;;;;1.88;0.85;;;23.00;66.30;;;;;;5049411;28;20437;-74
2023/09/20 11:07:09;;;;;;;2.20;1.00;;;22.90;65.00;;;;;;5049288;28;20471;-74
2023/09/20 11:09:38;;;;;;;1.70;1.10;;;22.80;65.60;;;;;;5047374;28;20434;-75
2023/09/20 11:12:07;;;;;;;1.50;1.05;;;22.80;66.20;;;;;;5049598;28;20503;-75
2023/09/20 11:14:36;;;;;;;1.80;0.70;;;22.80;66.60;;;;;;5054196;28;20915;-73
2023/09/20 11:17:05;;;;;;;5.80;1.80;;;22.90;66.60;;;;;;5048581;28;20816;-73
2023/09/20 11:19:32;;;;;;;2.20;1.10;;;22.90;65.10;;;;;;5048072;28;20461;-74
2023/09/20 11:21:59;;;;;;;2.25;1.20;;;22.80;65.50;;;;;;5045700;28;20487;-75
2023/09/20 11:24:27;;;;;;;2.10;1.10;;;22.80;65.80;;;;;;5048687;28;20465;-74
2023/09/20 11:26:55;;;;;;;2.90;1.27;;;22.70;66.00;;;;;;5054103;28;20417;-75
2023/09/20 11:29:22;;;;;;;2.60;1.10;;;22.70;66.60;;;;;;5047599;28;20459;-75
2023/09/20 11:31:50;;;;;;;2.20;1.08;;;22.90;67.60;;;;;;5042062;28;20912;-75
2023/09/20 11:34:19;;;;;;;1.95;1.00;;;23.10;66.50;;;;;;5052073;28;20440;-75
2023/09/20 11:36:47;;;;;;;2.90;1.20;;;23.30;66.00;;;;;;5047393;28;20429;-75
2023/09/20 11:39:17;;;;;;;2.00;0.90;;;23.50;65.10;;;;;;5047809;28;20437;-74
2023/09/20 11:41:44;;;;;;;2.10;1.00;;;23.70;64.00;;;;;;5046399;28;20583;-75
2023/09/20 11:44:11;;;;;;;1.70;1.00;;;24.00;61.60;;;;;;5046192;28;20452;-74
2023/09/20 11:46:38;;;;;;;4.38;1.20;;;24.10;61.70;;;;;;5046172;28;20927;-75
2023/09/20 11:49:06;;;;;;;1.90;1.10;;;24.40;60.70;;;;;;5047493;28;20434;-73
2023/09/20 11:51:36;;;;;;;2.75;0.90;;;24.70;58.60;;;;;;5048872;28;20432;-73
2023/09/20 11:54:05;;;;;;;1.90;1.10;;;25.00;56.90;;;;;;5045524;28;20616;-73
2023/09/20 11:56:35;;;;;;;2.45;1.00;;;25.10;55.80;;;;;;5051848;28;20765;-76
2023/09/20 11:59:03;;;;;;;2.03;1.20;;;24.90;55.50;;;;;;5048984;28;20421;-74
2023/09/20 12:01:30;;;;;;;2.30;1.00;;;24.70;57.50;;;;;;5047054;28;20432;-76
2023/09/20 12:03:57;;;;;;;1.50;0.90;;;24.50;57.80;;;;;;5050825;28;20413;-74
2023/09/20 12:06:25;;;;;;;2.13;0.90;;;24.40;58.80;;;;;;5047955;28;20420;-76
2023/09/20 12:08:54;;;;;;;2.00;1.10;;;24.30;59.00;;;;;;5051670;28;20416;-76
2023/09/20 12:11:20;;;;;;;3.55;1.10;;;24.20;60.60;;;;;;5048666;28;20426;-73
2023/09/20 12:13:48;;;;;;;2.40;1.10;;;24.10;60.30;;;;;;5047747;28;20784;-74
2023/09/20 12:16:15;;;;;;;3.42;1.20;;;24.20;60.10;;;;;;5047223;28;20419;-73
2023/09/20 12:18:43;;;;;;;1.95;1.05;;;24.30;60.20;;;;;;5047390;28;20410;-75
2023/09/20 12:21:10;;;;;;;2.10;1.30;;;24.20;60.00;;;;;;5047886;28;20868;-73
2023/09/20 12:23:38;;;;;;;3.80;1.20;;;24.20;60.00;;;;;;5045283;28;20445;-75
2023/09/20 12:26:07;;;;;;;1.85;1.00;;;24.30;57.80;;;;;;5047349;28;20433;-72
2023/09/20 12:28:34;;;;;;;1.73;1.30;;;24.40;57.10;;;;;;5044718;28;20434;-75
2023/09/20 12:31:03;;;;;;;1.75;1.20;;;24.60;54.90;;;;;;5047884;28;20436;-74
2023/09/20 12:33:29;;;;;;;1.90;1.10;;;24.70;54.50;;;;;;5043823;28;20435;-74
2023/09/20 12:35:57;;;;;;;3.72;1.48;;;24.70;54.50;;;;;;5046588;28;20474;-75
2023/09/20 12:38:24;;;;;;;3.40;1.20;;;24.90;54.30;;;;;;5048278;28;20418;-74
2023/09/20 12:40:52;;;;;;;2.00;1.00;;;25.00;51.30;;;;;;5046442;28;20409;-75
2023/09/20 12:43:20;;;;;;;2.45;1.20;;;24.90;53.90;;;;;;5046590;28;20429;-74
2023/09/20 12:45:47;;;;;;;2.60;1.27;;;24.80;54.10;;;;;;5055478;28;20448;-76
2023/09/20 12:48:14;;;;;;;3.90;1.40;;;24.70;55.40;;;;;;5057769;28;20460;-73
2023/09/20 12:50:42;;;;;;;2.55;1.15;;;24.70;55.60;;;;;;5064170;28;20436;-75
2023/09/20 12:53:09;;;;;;;2.17;1.20;;;24.90;54.90;;;;;;5056815;28;20452;-74
2023/09/20 12:55:38;;;;;;;1.90;1.10;;;24.90;55.20;;;;;;5059346;28;20887;-74
2023/09/20 12:58:06;;;;;;;2.05;1.00;;;25.00;53.20;;;;;;5055015;28;20435;-75
2023/09/20 13:00:34;;;;;;;2.05;1.10;;;25.20;52.60;;;;;;5049809;28;20888;-74
2023/09/20 13:03:03;;;;;;;1.98;1.20;;;25.40;48.60;;;;;;5049684;28;20441;-74
2023/09/20 13:05:30;;;;;;;1.92;1.30;;;25.60;48.30;;;;;;5055593;28;20439;-74
2023/09/20 13:07:57;;;;;;;2.20;1.33;;;25.70;48.20;;;;;;5057552;28;20417;-75
2023/09/20 13:10:24;;;;;;;2.70;1.30;;;25.80;47.50;;;;;;5052668;28;20486;-73
2023/09/20 13:12:50;;;;;;;2.75;1.60;;;26.00;46.00;;;;;;5050442;28;20444;-76
2023/09/20 13:15:19;;;;;;;1.80;1.10;;;25.80;46.70;;;;;;5049385;28;20573;-75
2023/09/20 13:17:48;;;;;;;2.38;1.60;;;25.80;46.50;;;;;;5052088;28;21014;-72
2023/09/20 13:20:15;;;;;;;1.80;1.20;;;25.80;46.80;;;;;;5055809;28;20418;-73
2023/09/20 13:22:42;;;;;;;2.05;1.10;;;25.70;48.00;;;;;;5060812;28;20504;-73
2023/09/20 13:25:14;;;;;;;2.08;1.20;;;25.60;48.80;;;;;;5054631;28;20431;-75
2023/09/20 13:27:40;;;;;;;2.60;1.20;;;25.60;49.70;;;;;;5050597;28;20441;-73
2023/09/20 13:30:10;;;;;;;2.78;1.15;;;25.60;49.50;;;;;;5053417;28;20429;-75
2023/09/20 13:32:36;;;;;;;2.83;1.40;;;25.70;50.10;;;;;;5051267;28;20428;-75